sensor_id;sensor_type;location;lat;lon;timestamp;temperature;humidity
11736;DHT22;5924;51.398;7.088;2023-06-19T00:01:19;22.30;1.00
11736;DHT22;5924;51.398;7.088;2023-06-19T00:03:44;22.30;1.00
11736;DHT22;5924;51.398;7.088;2023-06-19T00:06:10;22.20;1.00
11736;DHT22;5924;51.398;7.088;2023-06-19T00:08:38;22.20;1.00
11736;DHT22;5924;51.398;7.088;2023-06-19T00:11:07;22.10;1.00
11736;DHT22;5924;51.398;7.088;2023-06-19T00:13:32;22.00;1.00
11736;DHT22;5924;51.398;7.088;2023-06-19T00:15:59;21.90;1.00
11736;DHT22;5924;51.398;7.088;2023-06-19T00:18:28;21.80;1.00
11736;DHT22;5924;51.398;7.088;2023-06-19T00:20:53;21.70;1.00
11736;DHT22;5924;51.398;7.088;2023-06-19T00:23:22;21.60;1.00
11736;DHT22;5924;51.398;7.088;2023-06-19T00:25:47;21.40;1.00
11736;DHT22;5924;51.398;7.088;2023-06-19T00:28:13;21.30;1.00
11736;DHT22;5924;51.398;7.088;2023-06-19T00:30:40;21.30;1.00
11736;DHT22;5924;51.398;7.088;2023-06-19T00:33:07;21.20;1.00
11736;DHT22;5924;51.398;7.088;2023-06-19T00:35:33;21.20;33.10
11736;DHT22;5924;51.398;7.088;2023-06-19T00:37:58;21.10;99.90
11736;DHT22;5924;51.398;7.088;2023-06-19T00:40:32;21.00;99.90
11736;DHT22;5924;51.398;7.088;2023-06-19T00:42:58;20.30;1.00
11736;DHT22;5924;51.398;7.088;2023-06-19T00:45:24;20.90;1.00
11736;DHT22;5924;51.398;7.088;2023-06-19T00:47:54;20.90;99.90
11736;DHT22;5924;51.398;7.088;2023-06-19T00:50:21;20.90;99.90
11736;DHT22;5924;51.398;7.088;2023-06-19T00:52:47;20.90;99.90
11736;DHT22;5924;51.398;7.088;2023-06-19T00:55:13;20.90;99.90
11736;DHT22;5924;51.398;7.088;2023-06-19T00:57:40;20.90;99.90
11736;DHT22;5924;51.398;7.088;2023-06-19T01:00:06;20.90;99.90
11736;DHT22;5924;51.398;7.088;2023-06-19T01:02:34;21.00;99.90
11736;DHT22;5924;51.398;7.088;2023-06-19T01:05:00;21.00;99.90
11736;DHT22;5924;51.398;7.088;2023-06-19T01:10:05;20.90;1.00
11736;DHT22;5924;51.398;7.088;2023-06-19T01:12:36;20.90;1.00
11736;DHT22;5924;51.398;7.088;2023-06-19T01:15:04;20.70;99.90
11736;DHT22;5924;51.398;7.088;2023-06-19T01:17:31;20.60;99.90
11736;DHT22;5924;51.398;7.088;2023-06-19T01:19:58;20.60;87.80
11736;DHT22;5924;51.398;7.088;2023-06-19T01:22:30;20.40;1.00
11736;DHT22;5924;51.398;7.088;2023-06-19T01:24:56;20.30;1.00
11736;DHT22;5924;51.398;7.088;2023-06-19T01:27:23;20.30;99.90
11736;DHT22;5924;51.398;7.088;2023-06-19T01:29:51;20.20;1.00
11736;DHT22;5924;51.398;7.088;2023-06-19T01:32:22;20.10;99.90
11736;DHT22;5924;51.398;7.088;2023-06-19T01:34:52;20.10;1.00
11736;DHT22;5924;51.398;7.088;2023-06-19T01:37:19;20.00;1.00
11736;DHT22;5924;51.398;7.088;2023-06-19T01:39:46;20.00;1.00
11736;DHT22;5924;51.398;7.088;2023-06-19T01:42:13;20.00;1.00
11736;DHT22;5924;51.398;7.088;2023-06-19T01:44:40;20.00;28.10
11736;DHT22;5924;51.398;7.088;2023-06-19T01:47:10;20.00;99.90
11736;DHT22;5924;51.398;7.088;2023-06-19T01:49:37;19.90;99.90
11736;DHT22;5924;51.398;7.088;2023-06-19T01:52:04;19.90;99.90
11736;DHT22;5924;51.398;7.088;2023-06-19T01:54:29;19.80;99.90
11736;DHT22;5924;51.398;7.088;2023-06-19T01:56:56;19.70;99.90
11736;DHT22;5924;51.398;7.088;2023-06-19T01:59:22;19.60;99.90
11736;DHT22;5924;51.398;7.088;2023-06-19T02:01:47;19.60;99.90
11736;DHT22;5924;51.398;7.088;2023-06-19T02:04:13;19.50;99.90
11736;DHT22;5924;51.398;7.088;2023-06-19T02:06:39;19.60;99.90
11736;DHT22;5924;51.398;7.088;2023-06-19T02:09:04;19.50;99.90
11736;DHT22;5924;51.398;7.088;2023-06-19T02:11:30;19.60;99.90
11736;DHT22;5924;51.398;7.088;2023-06-19T02:13:56;19.60;99.90
11736;DHT22;5924;51.398;7.088;2023-06-19T02:16:21;19.60;99.90
11736;DHT22;5924;51.398;7.088;2023-06-19T02:18:47;19.60;99.90
11736;DHT22;5924;51.398;7.088;2023-06-19T02:21:13;19.60;99.90
11736;DHT22;5924;51.398;7.088;2023-06-19T02:23:38;19.60;99.90
11736;DHT22;5924;51.398;7.088;2023-06-19T02:26:04;19.50;99.90
11736;DHT22;5924;51.398;7.088;2023-06-19T02:28:29;19.50;99.90
11736;DHT22;5924;51.398;7.088;2023-06-19T02:30:55;19.50;99.90
11736;DHT22;5924;51.398;7.088;2023-06-19T02:33:21;19.50;99.90
11736;DHT22;5924;51.398;7.088;2023-06-19T02:35:47;19.50;99.90
11736;DHT22;5924;51.398;7.088;2023-06-19T02:38:12;19.60;99.90
11736;DHT22;5924;51.398;7.088;2023-06-19T02:40:38;19.80;61.70
11736;DHT22;5924;51.398;7.088;2023-06-19T02:43:04;20.00;1.00
11736;DHT22;5924;51.398;7.088;2023-06-19T02:45:30;20.20;99.90
11736;DHT22;5924;51.398;7.088;2023-06-19T02:47:55;20.40;99.90
11736;DHT22;5924;51.398;7.088;2023-06-19T02:50:21;20.50;1.00
11736;DHT22;5924;51.398;7.088;2023-06-19T02:52:47;20.60;99.90
11736;DHT22;5924;51.398;7.088;2023-06-19T02:55:13;20.80;99.90
11736;DHT22;5924;51.398;7.088;2023-06-19T02:57:38;20.90;1.00
11736;DHT22;5924;51.398;7.088;2023-06-19T03:00:04;21.10;99.90
11736;DHT22;5924;51.398;7.088;2023-06-19T03:02:35;21.20;99.90
11736;DHT22;5924;51.398;7.088;2023-06-19T03:05:02;21.30;99.90
11736;DHT22;5924;51.398;7.088;2023-06-19T03:07:27;21.40;99.90
11736;DHT22;5924;51.398;7.088;2023-06-19T03:09:54;21.40;99.90
11736;DHT22;5924;51.398;7.088;2023-06-19T03:12:19;21.50;99.90
11736;DHT22;5924;51.398;7.088;2023-06-19T03:14:45;21.50;99.90
11736;DHT22;5924;51.398;7.088;2023-06-19T03:17:12;21.50;1.00
11736;DHT22;5924;51.398;7.088;2023-06-19T03:19:37;21.40;99.90
11736;DHT22;5924;51.398;7.088;2023-06-19T03:22:03;21.40;1.00
11736;DHT22;5924;51.398;7.088;2023-06-19T03:24:29;21.30;1.00
11736;DHT22;5924;51.398;7.088;2023-06-19T03:26:54;21.30;1.00
11736;DHT22;5924;51.398;7.088;2023-06-19T03:29:20;22.10;99.90
11736;DHT22;5924;51.398;7.088;2023-06-19T03:31:45;21.10;91.40
11736;DHT22;5924;51.398;7.088;2023-06-19T03:34:12;21.10;99.90
11736;DHT22;5924;51.398;7.088;2023-06-19T03:36:37;21.00;1.00
11736;DHT22;5924;51.398;7.088;2023-06-19T03:39:04;20.90;99.90
11736;DHT22;5924;51.398;7.088;2023-06-19T03:41:29;20.80;1.00
11736;DHT22;5924;51.398;7.088;2023-06-19T03:43:55;20.80;1.00
11736;DHT22;5924;51.398;7.088;2023-06-19T03:46:21;20.70;37.60
11736;DHT22;5924;51.398;7.088;2023-06-19T03:48:46;20.70;99.90
11736;DHT22;5924;51.398;7.088;2023-06-19T03:51:12;20.60;99.90
11736;DHT22;5924;51.398;7.088;2023-06-19T03:53:38;20.60;99.90
11736;DHT22;5924;51.398;7.088;2023-06-19T03:56:03;20.50;99.90
11736;DHT22;5924;51.398;7.088;2023-06-19T03:58:29;20.50;99.90
11736;DHT22;5924;51.398;7.088;2023-06-19T04:00:54;20.40;99.90
11736;DHT22;5924;51.398;7.088;2023-06-19T04:03:20;20.40;99.90
11736;DHT22;5924;51.398;7.088;2023-06-19T04:05:46;20.30;99.90
11736;DHT22;5924;51.398;7.088;2023-06-19T04:08:12;20.30;99.90
11736;DHT22;5924;51.398;7.088;2023-06-19T04:10:37;20.30;1.00
11736;DHT22;5924;51.398;7.088;2023-06-19T04:13:03;20.30;1.00
11736;DHT22;5924;51.398;7.088;2023-06-19T04:15:29;20.30;1.00
11736;DHT22;5924;51.398;7.088;2023-06-19T04:17:57;20.30;1.00
11736;DHT22;5924;51.398;7.088;2023-06-19T04:20:23;20.30;1.00
11736;DHT22;5924;51.398;7.088;2023-06-19T04:22:48;20.30;1.00
11736;DHT22;5924;51.398;7.088;2023-06-19T04:25:14;20.30;1.00
11736;DHT22;5924;51.398;7.088;2023-06-19T04:27:40;20.30;1.00
11736;DHT22;5924;51.398;7.088;2023-06-19T04:30:06;20.20;1.00
11736;DHT22;5924;51.398;7.088;2023-06-19T04:32:32;20.20;1.00
11736;DHT22;5924;51.398;7.088;2023-06-19T04:34:58;20.10;1.00
11736;DHT22;5924;51.398;7.088;2023-06-19T04:37:24;20.10;1.00
11736;DHT22;5924;51.398;7.088;2023-06-19T04:39:50;20.10;1.00
11736;DHT22;5924;51.398;7.088;2023-06-19T04:42:17;20.10;1.00
11736;DHT22;5924;51.398;7.088;2023-06-19T04:44:48;20.10;1.00
11736;DHT22;5924;51.398;7.088;2023-06-19T04:47:17;20.10;1.00
11736;DHT22;5924;51.398;7.088;2023-06-19T04:49:42;20.10;1.00
11736;DHT22;5924;51.398;7.088;2023-06-19T04:52:08;20.20;1.00
11736;DHT22;5924;51.398;7.088;2023-06-19T04:54:34;20.20;1.00
11736;DHT22;5924;51.398;7.088;2023-06-19T04:56:59;20.20;1.00
11736;DHT22;5924;51.398;7.088;2023-06-19T04:59:25;20.20;1.00
11736;DHT22;5924;51.398;7.088;2023-06-19T05:01:51;20.10;1.00
11736;DHT22;5924;51.398;7.088;2023-06-19T05:04:23;20.10;1.00
11736;DHT22;5924;51.398;7.088;2023-06-19T05:06:49;20.10;1.00
11736;DHT22;5924;51.398;7.088;2023-06-19T05:09:16;20.10;1.00
11736;DHT22;5924;51.398;7.088;2023-06-19T05:11:41;20.10;1.00
11736;DHT22;5924;51.398;7.088;2023-06-19T05:14:07;20.10;1.00
11736;DHT22;5924;51.398;7.088;2023-06-19T05:16:35;20.10;1.00
11736;DHT22;5924;51.398;7.088;2023-06-19T05:19:01;20.10;1.00
11736;DHT22;5924;51.398;7.088;2023-06-19T05:21:27;20.10;1.00
11736;DHT22;5924;51.398;7.088;2023-06-19T05:23:52;20.20;1.00
11736;DHT22;5924;51.398;7.088;2023-06-19T05:26:22;20.20;1.00
11736;DHT22;5924;51.398;7.088;2023-06-19T05:28:48;20.30;1.00
11736;DHT22;5924;51.398;7.088;2023-06-19T05:31:14;20.40;1.00
11736;DHT22;5924;51.398;7.088;2023-06-19T05:33:40;20.40;1.00
11736;DHT22;5924;51.398;7.088;2023-06-19T05:36:06;20.50;1.00
11736;DHT22;5924;51.398;7.088;2023-06-19T05:38:32;20.50;1.00
11736;DHT22;5924;51.398;7.088;2023-06-19T05:40:58;20.60;1.00
11736;DHT22;5924;51.398;7.088;2023-06-19T05:43:24;20.60;1.00
11736;DHT22;5924;51.398;7.088;2023-06-19T05:45:55;20.60;1.00
11736;DHT22;5924;51.398;7.088;2023-06-19T05:48:27;20.70;1.00
11736;DHT22;5924;51.398;7.088;2023-06-19T05:50:53;20.70;1.00
11736;DHT22;5924;51.398;7.088;2023-06-19T05:53:19;20.70;1.00
11736;DHT22;5924;51.398;7.088;2023-06-19T05:55:45;20.70;1.00
11736;DHT22;5924;51.398;7.088;2023-06-19T05:58:10;20.70;1.00
11736;DHT22;5924;51.398;7.088;2023-06-19T06:00:36;20.80;1.00
11736;DHT22;5924;51.398;7.088;2023-06-19T06:03:02;20.90;1.00
11736;DHT22;5924;51.398;7.088;2023-06-19T06:05:28;21.00;1.00
11736;DHT22;5924;51.398;7.088;2023-06-19T06:07:54;21.00;1.00
11736;DHT22;5924;51.398;7.088;2023-06-19T06:10:21;21.10;1.00
11736;DHT22;5924;51.398;7.088;2023-06-19T06:12:48;21.20;1.00
11736;DHT22;5924;51.398;7.088;2023-06-19T06:15:14;21.30;1.00
11736;DHT22;5924;51.398;7.088;2023-06-19T06:17:39;21.40;1.00
11736;DHT22;5924;51.398;7.088;2023-06-19T06:20:06;21.50;1.00
11736;DHT22;5924;51.398;7.088;2023-06-19T06:22:41;21.50;1.00
11736;DHT22;5924;51.398;7.088;2023-06-19T06:25:08;21.40;1.00
11736;DHT22;5924;51.398;7.088;2023-06-19T06:27:35;21.40;1.00
11736;DHT22;5924;51.398;7.088;2023-06-19T06:30:01;21.40;1.00
11736;DHT22;5924;51.398;7.088;2023-06-19T06:32:27;21.50;1.00
11736;DHT22;5924;51.398;7.088;2023-06-19T06:34:54;21.60;1.00
11736;DHT22;5924;51.398;7.088;2023-06-19T06:37:20;21.70;1.00
11736;DHT22;5924;51.398;7.088;2023-06-19T06:39:48;21.90;99.90
11736;DHT22;5924;51.398;7.088;2023-06-19T06:42:17;22.00;99.90
11736;DHT22;5924;51.398;7.088;2023-06-19T06:44:44;22.00;99.90
11736;DHT22;5924;51.398;7.088;2023-06-19T06:47:09;21.90;99.90
11736;DHT22;5924;51.398;7.088;2023-06-19T06:49:35;21.90;99.90
11736;DHT22;5924;51.398;7.088;2023-06-19T06:52:03;21.90;99.90
11736;DHT22;5924;51.398;7.088;2023-06-19T06:54:28;22.00;99.90
11736;DHT22;5924;51.398;7.088;2023-06-19T06:56:54;21.90;99.90
11736;DHT22;5924;51.398;7.088;2023-06-19T06:59:24;21.90;99.90
11736;DHT22;5924;51.398;7.088;2023-06-19T07:01:49;21.80;99.90
11736;DHT22;5924;51.398;7.088;2023-06-19T07:04:15;21.70;99.90
11736;DHT22;5924;51.398;7.088;2023-06-19T07:06:41;21.60;99.90
11736;DHT22;5924;51.398;7.088;2023-06-19T07:09:06;21.50;99.90
11736;DHT22;5924;51.398;7.088;2023-06-19T07:11:32;21.40;99.90
11736;DHT22;5924;51.398;7.088;2023-06-19T07:13:58;21.30;1.00
11736;DHT22;5924;51.398;7.088;2023-06-19T07:16:24;21.10;1.00
11736;DHT22;5924;51.398;7.088;2023-06-19T07:18:49;21.10;1.00
11736;DHT22;5924;51.398;7.088;2023-06-19T07:21:15;21.00;1.00
11736;DHT22;5924;51.398;7.088;2023-06-19T07:23:41;21.10;1.00
11736;DHT22;5924;51.398;7.088;2023-06-19T07:26:08;21.20;1.00
11736;DHT22;5924;51.398;7.088;2023-06-19T07:28:34;21.30;1.00
11736;DHT22;5924;51.398;7.088;2023-06-19T07:31:02;21.20;1.00
11736;DHT22;5924;51.398;7.088;2023-06-19T07:33:28;21.20;1.00
11736;DHT22;5924;51.398;7.088;2023-06-19T07:35:55;21.00;1.00
11736;DHT22;5924;51.398;7.088;2023-06-19T07:38:20;20.90;1.00
11736;DHT22;5924;51.398;7.088;2023-06-19T07:40:46;20.00;1.00
11736;DHT22;5924;51.398;7.088;2023-06-19T07:43:11;20.80;1.00
11736;DHT22;5924;51.398;7.088;2023-06-19T07:45:37;20.70;1.00
11736;DHT22;5924;51.398;7.088;2023-06-19T07:48:03;20.60;1.00
11736;DHT22;5924;51.398;7.088;2023-06-19T07:50:28;20.70;1.00
11736;DHT22;5924;51.398;7.088;2023-06-19T07:52:54;20.80;1.00
11736;DHT22;5924;51.398;7.088;2023-06-19T07:55:20;20.90;1.00
11736;DHT22;5924;51.398;7.088;2023-06-19T07:57:45;21.20;1.00
11736;DHT22;5924;51.398;7.088;2023-06-19T08:00:11;21.60;1.00
11736;DHT22;5924;51.398;7.088;2023-06-19T08:02:39;21.90;1.00
11736;DHT22;5924;51.398;7.088;2023-06-19T08:05:05;22.10;99.90
11736;DHT22;5924;51.398;7.088;2023-06-19T08:07:32;22.10;99.90
11736;DHT22;5924;51.398;7.088;2023-06-19T08:09:57;22.10;99.90
11736;DHT22;5924;51.398;7.088;2023-06-19T08:12:23;22.10;99.90
11736;DHT22;5924;51.398;7.088;2023-06-19T08:14:49;22.20;99.90
11736;DHT22;5924;51.398;7.088;2023-06-19T08:17:14;22.30;99.90
11736;DHT22;5924;51.398;7.088;2023-06-19T08:19:40;22.40;99.90
11736;DHT22;5924;51.398;7.088;2023-06-19T08:22:07;22.40;99.90
11736;DHT22;5924;51.398;7.088;2023-06-19T08:24:34;22.20;99.90
11736;DHT22;5924;51.398;7.088;2023-06-19T08:27:01;22.10;99.90
11736;DHT22;5924;51.398;7.088;2023-06-19T08:29:27;21.80;99.90
11736;DHT22;5924;51.398;7.088;2023-06-19T08:31:53;21.60;1.00
11736;DHT22;5924;51.398;7.088;2023-06-19T08:34:19;21.50;1.00
11736;DHT22;5924;51.398;7.088;2023-06-19T08:36:44;21.60;1.00
11736;DHT22;5924;51.398;7.088;2023-06-19T08:39:10;21.70;99.90
11736;DHT22;5924;51.398;7.088;2023-06-19T08:41:39;21.80;99.90
11736;DHT22;5924;51.398;7.088;2023-06-19T08:44:05;22.00;99.90
11736;DHT22;5924;51.398;7.088;2023-06-19T08:46:31;22.20;99.90
11736;DHT22;5924;51.398;7.088;2023-06-19T08:48:57;22.40;99.90
11736;DHT22;5924;51.398;7.088;2023-06-19T08:51:22;22.70;99.90
11736;DHT22;5924;51.398;7.088;2023-06-19T08:53:54;23.10;99.90
11736;DHT22;5924;51.398;7.088;2023-06-19T08:56:19;23.30;1.00
11736;DHT22;5924;51.398;7.088;2023-06-19T08:58:45;23.50;1.00
11736;DHT22;5924;51.398;7.088;2023-06-19T09:01:13;23.70;1.00
11736;DHT22;5924;51.398;7.088;2023-06-19T09:03:39;23.90;99.90
11736;DHT22;5924;51.398;7.088;2023-06-19T09:06:08;23.40;1.00
11736;DHT22;5924;51.398;7.088;2023-06-19T09:08:34;24.20;99.90
11736;DHT22;5924;51.398;7.088;2023-06-19T09:11:02;24.20;99.90
11736;DHT22;5924;51.398;7.088;2023-06-19T09:13:28;24.10;99.90
11736;DHT22;5924;51.398;7.088;2023-06-19T09:16:06;24.00;99.90
11736;DHT22;5924;51.398;7.088;2023-06-19T09:18:45;23.90;99.90
11736;DHT22;5924;51.398;7.088;2023-06-19T09:21:18;24.00;99.90
11736;DHT22;5924;51.398;7.088;2023-06-19T09:23:45;24.20;99.90
11736;DHT22;5924;51.398;7.088;2023-06-19T09:26:14;24.40;99.90
11736;DHT22;5924;51.398;7.088;2023-06-19T09:28:41;24.50;99.90
11736;DHT22;5924;51.398;7.088;2023-06-19T09:31:08;24.60;99.90
11736;DHT22;5924;51.398;7.088;2023-06-19T09:33:35;24.80;99.90
11736;DHT22;5924;51.398;7.088;2023-06-19T09:36:03;25.00;99.90
11736;DHT22;5924;51.398;7.088;2023-06-19T09:38:38;25.10;99.90
11736;DHT22;5924;51.398;7.088;2023-06-19T09:41:06;25.30;99.90
11736;DHT22;5924;51.398;7.088;2023-06-19T09:43:38;25.50;96.10
11736;DHT22;5924;51.398;7.088;2023-06-19T09:46:06;25.70;99.90
11736;DHT22;5924;51.398;7.088;2023-06-19T09:48:33;26.00;96.50
11736;DHT22;5924;51.398;7.088;2023-06-19T09:53:34;25.80;1.00
11736;DHT22;5924;51.398;7.088;2023-06-19T09:56:00;25.80;1.00
11736;DHT22;5924;51.398;7.088;2023-06-19T09:58:26;25.80;1.00
11736;DHT22;5924;51.398;7.088;2023-06-19T10:00:54;25.90;1.00
11736;DHT22;5924;51.398;7.088;2023-06-19T10:03:20;26.10;1.00
11736;DHT22;5924;51.398;7.088;2023-06-19T10:05:47;26.30;1.00
11736;DHT22;5924;51.398;7.088;2023-06-19T10:08:39;26.40;1.00
11736;DHT22;5924;51.398;7.088;2023-06-19T10:11:05;26.20;1.00
11736;DHT22;5924;51.398;7.088;2023-06-19T10:13:35;26.10;1.00
11736;DHT22;5924;51.398;7.088;2023-06-19T10:16:02;26.40;1.00
11736;DHT22;5924;51.398;7.088;2023-06-19T10:18:28;26.40;1.00
11736;DHT22;5924;51.398;7.088;2023-06-19T10:20:54;26.50;1.00
11736;DHT22;5924;51.398;7.088;2023-06-19T10:23:21;26.80;1.00
11736;DHT22;5924;51.398;7.088;2023-06-19T10:25:58;27.20;1.00
11736;DHT22;5924;51.398;7.088;2023-06-19T10:28:26;27.50;1.00
11736;DHT22;5924;51.398;7.088;2023-06-19T10:33:27;27.50;1.00
11736;DHT22;5924;51.398;7.088;2023-06-19T10:35:54;27.10;1.00
11736;DHT22;5924;51.398;7.088;2023-06-19T10:38:19;26.90;1.00
11736;DHT22;5924;51.398;7.088;2023-06-19T10:40:46;26.40;1.00
11736;DHT22;5924;51.398;7.088;2023-06-19T10:43:13;26.20;1.00
11736;DHT22;5924;51.398;7.088;2023-06-19T10:45:44;25.90;1.00
11736;DHT22;5924;51.398;7.088;2023-06-19T10:48:10;26.00;1.00
11736;DHT22;5924;51.398;7.088;2023-06-19T10:50:37;26.40;1.00
11736;DHT22;5924;51.398;7.088;2023-06-19T10:53:06;26.90;1.00
11736;DHT22;5924;51.398;7.088;2023-06-19T10:55:32;27.10;1.00
11736;DHT22;5924;51.398;7.088;2023-06-19T10:57:58;27.20;1.00
11736;DHT22;5924;51.398;7.088;2023-06-19T11:00:27;27.20;1.00
11736;DHT22;5924;51.398;7.088;2023-06-19T11:02:58;27.10;1.00
11736;DHT22;5924;51.398;7.088;2023-06-19T11:05:25;26.60;1.00
11736;DHT22;5924;51.398;7.088;2023-06-19T11:08:00;26.40;1.00
11736;DHT22;5924;51.398;7.088;2023-06-19T11:10:28;26.40;1.00
11736;DHT22;5924;51.398;7.088;2023-06-19T11:12:55;26.30;1.00
11736;DHT22;5924;51.398;7.088;2023-06-19T11:15:31;26.30;1.00
11736;DHT22;5924;51.398;7.088;2023-06-19T11:17:59;26.40;1.00
11736;DHT22;5924;51.398;7.088;2023-06-19T11:20:25;26.80;1.00
11736;DHT22;5924;51.398;7.088;2023-06-19T11:22:59;27.20;1.00
11736;DHT22;5924;51.398;7.088;2023-06-19T11:25:35;27.40;1.00
11736;DHT22;5924;51.398;7.088;2023-06-19T11:28:01;27.50;1.00
11736;DHT22;5924;51.398;7.088;2023-06-19T11:30:32;27.90;1.00
11736;DHT22;5924;51.398;7.088;2023-06-19T11:32:57;28.20;1.00
11736;DHT22;5924;51.398;7.088;2023-06-19T11:35:23;28.20;1.00
11736;DHT22;5924;51.398;7.088;2023-06-19T11:37:49;28.20;1.00
11736;DHT22;5924;51.398;7.088;2023-06-19T11:40:16;28.50;1.00
11736;DHT22;5924;51.398;7.088;2023-06-19T11:42:52;28.00;1.00
11736;DHT22;5924;51.398;7.088;2023-06-19T11:45:18;28.70;1.00
11736;DHT22;5924;51.398;7.088;2023-06-19T11:47:44;28.50;1.00
11736;DHT22;5924;51.398;7.088;2023-06-19T11:50:12;28.50;1.00
11736;DHT22;5924;51.398;7.088;2023-06-19T11:52:38;28.50;1.00
11736;DHT22;5924;51.398;7.088;2023-06-19T11:55:03;28.70;1.00
11736;DHT22;5924;51.398;7.088;2023-06-19T11:57:30;28.80;1.00
11736;DHT22;5924;51.398;7.088;2023-06-19T11:59:56;28.80;1.00
11736;DHT22;5924;51.398;7.088;2023-06-19T12:02:21;29.10;1.00
11736;DHT22;5924;51.398;7.088;2023-06-19T12:04:47;29.30;1.00
11736;DHT22;5924;51.398;7.088;2023-06-19T12:07:12;29.10;1.00
11736;DHT22;5924;51.398;7.088;2023-06-19T12:09:38;29.00;1.00
11736;DHT22;5924;51.398;7.088;2023-06-19T12:12:05;29.00;1.00
11736;DHT22;5924;51.398;7.088;2023-06-19T12:14:31;29.00;1.00
11736;DHT22;5924;51.398;7.088;2023-06-19T12:16:57;28.80;1.00
11736;DHT22;5924;51.398;7.088;2023-06-19T12:19:22;28.70;1.00
11736;DHT22;5924;51.398;7.088;2023-06-19T12:21:48;29.10;1.00
11736;DHT22;5924;51.398;7.088;2023-06-19T12:24:14;29.00;1.00
11736;DHT22;5924;51.398;7.088;2023-06-19T12:26:39;29.10;1.00
11736;DHT22;5924;51.398;7.088;2023-06-19T12:29:06;28.90;1.00
11736;DHT22;5924;51.398;7.088;2023-06-19T12:31:33;29.10;1.00
11736;DHT22;5924;51.398;7.088;2023-06-19T12:33:59;29.80;1.00
11736;DHT22;5924;51.398;7.088;2023-06-19T12:36:26;30.50;1.00
11736;DHT22;5924;51.398;7.088;2023-06-19T12:38:53;31.30;1.00
11736;DHT22;5924;51.398;7.088;2023-06-19T12:41:20;31.50;1.00
11736;DHT22;5924;51.398;7.088;2023-06-19T12:43:45;30.90;1.00
11736;DHT22;5924;51.398;7.088;2023-06-19T12:46:12;30.40;1.00
11736;DHT22;5924;51.398;7.088;2023-06-19T12:48:38;30.30;1.00
11736;DHT22;5924;51.398;7.088;2023-06-19T12:51:03;30.50;1.00
11736;DHT22;5924;51.398;7.088;2023-06-19T12:53:29;30.90;1.00
11736;DHT22;5924;51.398;7.088;2023-06-19T12:55:58;31.00;1.00
11736;DHT22;5924;51.398;7.088;2023-06-19T12:58:24;30.90;1.00
11736;DHT22;5924;51.398;7.088;2023-06-19T13:00:50;30.70;1.00
11736;DHT22;5924;51.398;7.088;2023-06-19T13:03:15;30.40;1.00
11736;DHT22;5924;51.398;7.088;2023-06-19T13:05:41;30.10;1.00
11736;DHT22;5924;51.398;7.088;2023-06-19T13:08:07;29.70;1.00
11736;DHT22;5924;51.398;7.088;2023-06-19T13:10:33;29.50;1.00
11736;DHT22;5924;51.398;7.088;2023-06-19T13:12:58;29.10;1.00
11736;DHT22;5924;51.398;7.088;2023-06-19T13:15:24;28.90;1.00
11736;DHT22;5924;51.398;7.088;2023-06-19T13:17:50;29.00;1.00
11736;DHT22;5924;51.398;7.088;2023-06-19T13:20:16;29.40;1.00
11736;DHT22;5924;51.398;7.088;2023-06-19T13:22:42;30.10;1.00
11736;DHT22;5924;51.398;7.088;2023-06-19T13:25:08;30.60;1.00
11736;DHT22;5924;51.398;7.088;2023-06-19T13:27:34;31.40;1.00
11736;DHT22;5924;51.398;7.088;2023-06-19T13:30:01;32.40;1.00
11736;DHT22;5924;51.398;7.088;2023-06-19T13:32:27;32.60;1.00
11736;DHT22;5924;51.398;7.088;2023-06-19T13:34:52;32.40;1.00
11736;DHT22;5924;51.398;7.088;2023-06-19T13:37:18;32.60;1.00
11736;DHT22;5924;51.398;7.088;2023-06-19T13:39:45;32.40;1.00
11736;DHT22;5924;51.398;7.088;2023-06-19T13:42:11;32.20;1.00
11736;DHT22;5924;51.398;7.088;2023-06-19T13:44:37;32.00;1.00
11736;DHT22;5924;51.398;7.088;2023-06-19T13:47:03;32.10;1.00
11736;DHT22;5924;51.398;7.088;2023-06-19T13:49:29;32.40;1.00
11736;DHT22;5924;51.398;7.088;2023-06-19T13:51:55;32.40;1.00
11736;DHT22;5924;51.398;7.088;2023-06-19T13:54:21;32.70;1.00
11736;DHT22;5924;51.398;7.088;2023-06-19T13:56:48;32.30;1.00
11736;DHT22;5924;51.398;7.088;2023-06-19T13:59:16;31.80;1.00
11736;DHT22;5924;51.398;7.088;2023-06-19T14:01:42;31.80;1.00
11736;DHT22;5924;51.398;7.088;2023-06-19T14:04:08;31.50;1.00
11736;DHT22;5924;51.398;7.088;2023-06-19T14:06:36;30.80;1.00
11736;DHT22;5924;51.398;7.088;2023-06-19T14:09:03;31.70;1.00
11736;DHT22;5924;51.398;7.088;2023-06-19T14:11:29;32.30;1.00
11736;DHT22;5924;51.398;7.088;2023-06-19T14:13:55;32.40;1.00
11736;DHT22;5924;51.398;7.088;2023-06-19T14:16:21;32.50;1.00
11736;DHT22;5924;51.398;7.088;2023-06-19T14:18:47;31.60;1.00
11736;DHT22;5924;51.398;7.088;2023-06-19T14:21:12;30.80;1.00
11736;DHT22;5924;51.398;7.088;2023-06-19T14:23:38;30.40;1.00
11736;DHT22;5924;51.398;7.088;2023-06-19T14:26:09;30.20;1.00
11736;DHT22;5924;51.398;7.088;2023-06-19T14:28:36;30.40;1.00
11736;DHT22;5924;51.398;7.088;2023-06-19T14:31:03;30.70;1.00
11736;DHT22;5924;51.398;7.088;2023-06-19T14:33:28;31.50;1.00
11736;DHT22;5924;51.398;7.088;2023-06-19T14:35:54;32.40;1.00
11736;DHT22;5924;51.398;7.088;2023-06-19T14:38:20;32.60;1.00
11736;DHT22;5924;51.398;7.088;2023-06-19T14:40:45;32.70;1.00
11736;DHT22;5924;51.398;7.088;2023-06-19T14:43:11;32.80;1.00
11736;DHT22;5924;51.398;7.088;2023-06-19T14:45:37;32.70;1.00
11736;DHT22;5924;51.398;7.088;2023-06-19T14:48:05;32.50;1.00
11736;DHT22;5924;51.398;7.088;2023-06-19T14:50:30;32.60;1.00
11736;DHT22;5924;51.398;7.088;2023-06-19T14:52:56;32.40;1.00
11736;DHT22;5924;51.398;7.088;2023-06-19T14:55:21;33.10;1.00
11736;DHT22;5924;51.398;7.088;2023-06-19T14:57:47;33.80;1.00
11736;DHT22;5924;51.398;7.088;2023-06-19T15:00:13;34.20;1.00
11736;DHT22;5924;51.398;7.088;2023-06-19T15:02:39;34.40;1.00
11736;DHT22;5924;51.398;7.088;2023-06-19T15:05:05;33.80;1.00
11736;DHT22;5924;51.398;7.088;2023-06-19T15:07:31;32.90;1.00
11736;DHT22;5924;51.398;7.088;2023-06-19T15:09:56;33.20;1.00
11736;DHT22;5924;51.398;7.088;2023-06-19T15:12:22;33.50;1.00
11736;DHT22;5924;51.398;7.088;2023-06-19T15:14:48;33.50;1.00
11736;DHT22;5924;51.398;7.088;2023-06-19T15:17:13;33.40;1.00
11736;DHT22;5924;51.398;7.088;2023-06-19T15:19:40;33.40;1.00
11736;DHT22;5924;51.398;7.088;2023-06-19T15:22:05;34.00;1.00
11736;DHT22;5924;51.398;7.088;2023-06-19T15:24:31;34.50;1.00
11736;DHT22;5924;51.398;7.088;2023-06-19T15:26:57;34.60;1.00
11736;DHT22;5924;51.398;7.088;2023-06-19T15:29:24;35.30;1.00
11736;DHT22;5924;51.398;7.088;2023-06-19T15:31:50;36.10;1.00
11736;DHT22;5924;51.398;7.088;2023-06-19T15:34:15;36.50;1.00
11736;DHT22;5924;51.398;7.088;2023-06-19T15:36:41;36.90;1.00
11736;DHT22;5924;51.398;7.088;2023-06-19T15:39:07;36.40;1.00
11736;DHT22;5924;51.398;7.088;2023-06-19T15:41:32;36.20;1.00
11736;DHT22;5924;51.398;7.088;2023-06-19T15:43:58;36.20;1.00
11736;DHT22;5924;51.398;7.088;2023-06-19T15:46:23;36.40;1.00
11736;DHT22;5924;51.398;7.088;2023-06-19T15:48:49;36.40;1.00
11736;DHT22;5924;51.398;7.088;2023-06-19T15:51:17;36.00;1.00
11736;DHT22;5924;51.398;7.088;2023-06-19T15:53:43;36.40;1.00
11736;DHT22;5924;51.398;7.088;2023-06-19T15:56:08;36.10;1.00
11736;DHT22;5924;51.398;7.088;2023-06-19T15:58:34;36.20;1.00
11736;DHT22;5924;51.398;7.088;2023-06-19T16:01:00;36.80;1.00